createdAt,value
2023-01-03T00:02:44.034Z,92.0
2023-01-03T00:07:44.001Z,92.0
2023-01-03T00:12:44.005Z,92.0
2023-01-03T00:17:44.006Z,92.0
2023-01-03T00:22:44.026Z,91.5
2023-01-03T00:27:44.010Z,91.5
2023-01-03T00:32:44.123Z,91.0
2023-01-03T00:37:44.026Z,90.5
2023-01-03T00:42:44.015Z,90.5
2023-01-03T00:47:44.018Z,90.0
2023-01-03T00:52:44.029Z,90.0
2023-01-03T00:57:44.021Z,90.0
2023-01-03T01:02:44.292Z,90.0
2023-01-03T01:07:44.034Z,90.0
2023-01-03T01:17:44.027Z,90.0
2023-01-03T01:22:44.047Z,90.0
2023-01-03T01:27:44.039Z,90.0
2023-01-03T01:32:44.031Z,90.5
2023-01-03T01:37:44.043Z,90.5
2023-01-03T01:42:44.038Z,90.5
2023-01-03T01:47:44.044Z,90.5
2023-01-03T01:52:44.041Z,91.0
2023-01-03T01:57:44.050Z,91.0
2023-01-03T02:02:44.316Z,91.0
2023-01-03T02:07:44.050Z,91.0
2023-01-03T02:12:44.047Z,91.0
2023-01-03T02:17:44.052Z,91.0
2023-01-03T02:22:44.047Z,90.5
2023-01-03T02:27:44.083Z,91.0
2023-01-03T02:32:44.061Z,91.0
2023-01-03T02:37:44.060Z,91.0
2023-01-03T02:42:44.067Z,91.0
2023-01-03T02:47:44.069Z,91.0
2023-01-03T02:52:44.067Z,91.0
2023-01-03T02:57:44.068Z,91.0
2023-01-03T03:02:44.188Z,91.0
2023-01-03T03:07:44.074Z,91.5
2023-01-03T03:12:44.074Z,91.5
2023-01-03T03:17:43.979Z,92.0
2023-01-03T03:22:43.983Z,92.0
2023-01-03T03:27:44.121Z,92.5
2023-01-03T03:32:44.080Z,92.5
2023-01-03T03:37:44.205Z,92.5
2023-01-03T03:42:43.990Z,92.5
2023-01-03T03:47:44.000Z,92.5
2023-01-03T03:52:43.997Z,93.0
2023-01-03T03:57:44.005Z,93.0
2023-01-03T04:02:44.183Z,93.0
2023-01-03T04:07:44.008Z,93.5
2023-01-03T04:12:44.153Z,93.5
2023-01-03T04:17:44.012Z,93.5
2023-01-03T04:22:44.042Z,93.5
2023-01-03T04:27:44.010Z,93.0
2023-01-03T04:32:44.044Z,93.5
2023-01-03T04:37:44.015Z,93.5
2023-01-03T04:42:44.079Z,93.5
2023-01-03T04:47:44.036Z,93.5
2023-01-03T04:52:44.031Z,93.5
2023-01-03T04:57:44.031Z,93.5
2023-01-03T05:02:44.068Z,93.5
2023-01-03T05:07:44.034Z,93.5
2023-01-03T05:17:44.073Z,93.5
2023-01-03T05:22:44.052Z,93.5
2023-01-03T05:27:44.059Z,94.0
2023-01-03T05:32:44.074Z,94.0
2023-01-03T05:37:44.095Z,94.0
2023-01-03T05:42:44.082Z,94.0
2023-01-03T05:47:44.050Z,94.0
2023-01-03T05:52:44.099Z,94.0
2023-01-03T05:57:44.164Z,94.0
2023-01-03T06:02:44.257Z,94.0
2023-01-03T06:07:44.278Z,93.5
2023-01-03T06:12:44.184Z,93.5
2023-01-03T06:17:44.177Z,93.5
2023-01-03T06:22:44.181Z,93.5
2023-01-03T06:27:44.085Z,94.0
2023-01-03T06:32:44.096Z,93.5
2023-01-03T06:37:44.099Z,93.5
2023-01-03T06:42:44.089Z,94.0
2023-01-03T06:47:44.086Z,94.0
2023-01-03T06:52:44.085Z,94.0
2023-01-03T06:57:44.103Z,94.5
2023-01-03T07:02:44.279Z,95.0
2023-01-03T07:07:44.086Z,95.5
2023-01-03T07:12:44.108Z,95.5
2023-01-03T07:17:44.097Z,95.5
2023-01-03T07:22:44.096Z,95.0
2023-01-03T07:27:44.198Z,95.5
2023-01-03T07:32:44.204Z,95.5
2023-01-03T07:37:44.106Z,96.5
2023-01-03T07:42:44.107Z,96.5
2023-01-03T07:47:44.210Z,96.5
2023-01-03T07:52:44.223Z,96.5
2023-01-03T07:57:44.239Z,96.5
2023-01-03T08:02:44.407Z,96.0
2023-01-03T08:07:44.344Z,96.0
2023-01-03T08:12:44.227Z,96.0
2023-01-03T08:17:44.237Z,96.5
2023-01-03T08:22:44.241Z,97.0
2023-01-03T08:27:50.368Z,97.0
2023-01-03T08:32:44.242Z,97.0
2023-01-03T08:37:44.244Z,97.0
2023-01-03T08:42:44.244Z,97.0
2023-01-03T08:47:44.254Z,97.0
2023-01-03T08:52:44.254Z,97.0
2023-01-03T08:57:44.251Z,97.0
2023-01-03T09:02:44.563Z,97.0
2023-01-03T09:07:44.261Z,97.0
2023-01-03T09:12:44.266Z,97.0
2023-01-03T09:17:44.275Z,97.0
2023-01-03T09:22:44.273Z,97.0
2023-01-03T09:27:44.278Z,97.0
2023-01-03T09:32:44.271Z,96.5
2023-01-03T09:37:49.055Z,96.5
2023-01-03T09:42:44.284Z,96.5
2023-01-03T09:47:44.287Z,96.0
2023-01-03T09:52:44.294Z,96.0
2023-01-03T09:57:44.290Z,96.0
2023-01-03T10:02:44.415Z,96.0
2023-01-03T10:07:44.316Z,96.0
2023-01-03T10:12:44.297Z,96.0
2023-01-03T10:17:44.310Z,95.5
2023-01-03T10:22:44.313Z,95.5
2023-01-03T10:27:44.577Z,95.5
2023-01-03T10:32:44.330Z,95.5
2023-01-03T10:37:44.343Z,95.5
2023-01-03T10:42:44.317Z,95.0
2023-01-03T10:47:44.320Z,95.0
2023-01-03T10:52:44.322Z,94.5
2023-01-03T10:57:44.469Z,94.5
2023-01-03T11:02:44.493Z,94.0
2023-01-03T11:07:44.333Z,94.0
2023-01-03T11:12:44.352Z,94.5
2023-01-03T11:17:44.342Z,94.0
2023-01-03T11:22:44.345Z,94.0
2023-01-03T11:27:44.344Z,93.5
2023-01-03T11:32:44.343Z,93.5
2023-01-03T11:37:44.356Z,93.5
2023-01-03T11:42:44.356Z,93.0
2023-01-03T11:47:44.357Z,93.0
2023-01-03T11:52:44.384Z,92.0
2023-01-03T11:57:44.360Z,92.0
2023-01-03T12:02:44.457Z,91.5
2023-01-03T12:07:49.227Z,90.5
2023-01-03T12:12:44.384Z,90.0
2023-01-03T12:17:44.377Z,90.0
2023-01-03T12:22:44.280Z,90.0
2023-01-03T12:27:44.401Z,89.5
2023-01-03T12:32:44.283Z,89.0
2023-01-03T12:37:44.391Z,89.0
2023-01-03T12:42:44.392Z,89.0
2023-01-03T12:47:44.394Z,89.0
2023-01-03T12:52:44.400Z,88.5
2023-01-03T12:57:44.399Z,88.5
2023-01-03T13:02:44.556Z,88.5
2023-01-03T13:07:44.304Z,87.5
2023-01-03T13:12:44.405Z,86.5
2023-01-03T13:17:44.304Z,87.0
2023-01-03T13:22:44.452Z,87.0
2023-01-03T13:27:44.477Z,87.0
2023-01-03T13:32:44.318Z,87.5
2023-01-03T13:37:44.351Z,87.0
2023-01-03T13:42:44.330Z,87.0
2023-01-03T13:47:44.327Z,86.0
2023-01-03T13:52:44.331Z,85.0
2023-01-03T13:57:44.329Z,84.5
2023-01-03T14:02:44.619Z,83.5
2023-01-03T14:07:44.435Z,83.0
2023-01-03T14:12:44.340Z,82.5
2023-01-03T14:17:44.339Z,81.0
2023-01-03T14:22:44.352Z,80.5
2023-01-03T14:27:44.450Z,80.0
2023-01-03T14:32:44.347Z,80.0
2023-01-03T14:37:44.458Z,80.5
2023-01-03T14:42:44.354Z,80.5
2023-01-03T14:47:44.465Z,80.5
2023-01-03T14:52:44.456Z,80.5
2023-01-03T14:57:44.464Z,81.5
2023-01-03T15:02:44.646Z,81.5
2023-01-03T15:07:44.473Z,81.5
2023-01-03T15:17:44.477Z,81.5
2023-01-03T15:22:44.467Z,81.5
2023-01-03T15:27:44.491Z,81.5
2023-01-03T15:32:44.491Z,82.0
2023-01-03T15:37:44.483Z,82.0
2023-01-03T15:42:54.524Z,82.5
2023-01-03T15:47:44.486Z,82.5
2023-01-03T15:52:44.485Z,82.5
2023-01-03T15:57:44.486Z,83.0
2023-01-03T16:02:44.654Z,83.0
2023-01-03T16:07:44.493Z,83.0
2023-01-03T16:12:44.497Z,83.0
2023-01-03T16:17:44.502Z,83.5
2023-01-03T16:22:59.793Z,83.5
2023-01-03T16:27:44.505Z,83.5
2023-01-03T16:32:44.502Z,84.0
2023-01-03T16:37:44.651Z,84.0
2023-01-03T16:42:44.539Z,84.0
2023-01-03T16:47:44.514Z,84.0
2023-01-03T16:52:44.532Z,84.0
2023-01-03T16:57:48.826Z,84.0
2023-01-03T17:02:44.777Z,84.0
2023-01-03T17:07:44.529Z,84.5
2023-01-03T17:12:44.532Z,84.5
2023-01-03T17:17:44.539Z,84.0
2023-01-03T17:22:44.531Z,84.0
2023-01-03T17:27:44.542Z,84.0
2023-01-03T17:32:44.551Z,84.0
2023-01-03T17:47:44.565Z,83.5
2023-01-03T17:52:45.431Z,83.5
2023-01-03T17:57:44.551Z,83.5
2023-01-03T18:02:44.749Z,83.5
2023-01-03T18:07:44.565Z,83.5
2023-01-03T18:12:44.557Z,83.5
2023-01-03T18:17:44.563Z,83.5
2023-01-03T18:22:44.567Z,83.5
2023-01-03T18:27:44.563Z,83.5
2023-01-03T18:32:44.567Z,83.5
2023-01-03T18:37:44.576Z,83.5
2023-01-03T18:42:44.575Z,83.5
2023-01-03T18:47:44.578Z,83.0
2023-01-03T18:52:44.578Z,83.0
2023-01-03T18:57:44.677Z,83.0
2023-01-03T19:02:44.930Z,83.0
2023-01-03T19:07:44.589Z,82.5
2023-01-03T19:12:44.592Z,82.5
2023-01-03T19:17:44.593Z,82.5
2023-01-03T19:22:44.688Z,82.0
2023-01-03T19:27:44.595Z,82.0
2023-01-03T19:32:44.608Z,82.0
2023-01-03T19:37:44.602Z,82.0
2023-01-03T19:42:44.613Z,82.0
2023-01-03T19:47:44.610Z,82.0
2023-01-03T19:52:44.634Z,82.0
2023-01-03T19:57:44.642Z,82.0
2023-01-03T20:02:44.812Z,82.0
2023-01-03T20:07:44.618Z,82.0
2023-01-03T20:12:44.627Z,82.0
2023-01-03T20:17:44.642Z,82.0
2023-01-03T20:23:04.531Z,82.0
2023-01-03T20:27:44.926Z,82.0
2023-01-03T20:32:44.629Z,82.0
2023-01-03T20:37:44.636Z,82.5
2023-01-03T20:42:44.650Z,82.5
2023-01-03T20:47:44.638Z,82.5
2023-01-03T20:52:44.640Z,82.5
2023-01-03T20:57:44.648Z,82.5
2023-01-03T21:02:44.836Z,83.0
2023-01-03T21:07:44.652Z,83.0
2023-01-03T21:12:44.657Z,83.0
2023-01-03T21:17:50.994Z,82.5
2023-01-03T21:22:44.667Z,83.0
2023-01-03T21:27:44.661Z,83.0
2023-01-03T21:32:44.657Z,83.0
2023-01-03T21:37:44.661Z,82.5
2023-01-03T21:42:44.679Z,83.0
2023-01-03T21:47:44.666Z,82.5
2023-01-03T21:52:44.677Z,82.5
2023-01-03T21:57:44.673Z,82.5
2023-01-03T22:02:44.953Z,82.5
2023-01-03T22:07:44.703Z,82.5
2023-01-03T22:12:44.683Z,82.5
2023-01-03T22:17:44.688Z,82.5
2023-01-03T22:22:44.712Z,82.5
2023-01-03T22:27:44.695Z,82.0
2023-01-03T22:32:44.699Z,82.0
2023-01-03T22:37:44.715Z,81.5
2023-01-03T22:42:44.703Z,81.5
2023-01-03T22:47:44.712Z,81.5
2023-01-03T22:52:44.723Z,81.5
2023-01-03T22:57:44.716Z,81.5
2023-01-03T23:02:44.792Z,81.5
2023-01-03T23:07:44.762Z,81.5
2023-01-03T23:12:44.729Z,81.0
2023-01-03T23:17:44.729Z,81.0
2023-01-03T23:22:44.735Z,81.0
2023-01-03T23:27:44.728Z,81.0
2023-01-03T23:32:44.735Z,81.0
2023-01-03T23:37:44.735Z,81.0
2023-01-03T23:42:44.636Z,81.0
2023-01-03T23:47:44.635Z,81.0
2023-01-03T23:52:44.645Z,81.5
2023-01-03T23:57:44.741Z,82.0
